createdAt,value
2019-03-16T00:00:22.628Z,93.35
2019-03-16T00:01:22.661Z,93.86
2019-03-16T00:02:22.611Z,93.96
2019-03-16T00:03:22.596Z,93.80
2019-03-16T00:04:22.586Z,93.76
2019-03-16T00:05:22.572Z,92.83
2019-03-16T00:06:22.609Z,91.44
2019-03-16T00:07:32.482Z,92.06
2019-03-16T00:08:23.539Z,91.75
2019-03-16T00:09:22.529Z,91.24
2019-03-16T00:10:22.518Z,92.27
2019-03-16T00:11:22.546Z,92.06
2019-03-16T00:12:22.496Z,91.75
2019-03-16T00:13:22.484Z,91.90
2019-03-16T00:14:22.473Z,92.10
2019-03-16T00:15:22.462Z,90.67
2019-03-16T00:16:22.497Z,90.77
2019-03-16T00:17:23.766Z,92.10
2019-03-16T00:18:22.428Z,92.31
2019-03-16T00:19:22.417Z,92.41
2019-03-16T00:20:22.406Z,92.31
2019-03-16T00:21:22.488Z,92.51
2019-03-16T00:22:22.425Z,91.80
2019-03-16T00:23:22.373Z,91.80
2019-03-16T00:24:22.364Z,92.10
2019-03-16T00:25:22.350Z,92.10
2019-03-16T00:26:22.341Z,92.72
2019-03-16T00:27:22.340Z,93.23
2019-03-16T00:28:22.358Z,93.44
2019-03-16T00:29:22.346Z,93.64
2019-03-16T00:30:22.380Z,94.40
2019-03-16T00:31:22.314Z,94.36
2019-03-16T00:32:22.277Z,93.74
2019-03-16T00:33:22.264Z,94.05
2019-03-16T00:34:22.292Z,93.44
2019-03-16T00:35:22.242Z,94.26
2019-03-16T00:36:22.229Z,94.26
2019-03-16T00:37:22.219Z,94.42
2019-03-16T00:38:23.627Z,94.26
2019-03-16T00:39:22.196Z,94.36
2019-03-16T00:40:22.224Z,94.15
2019-03-16T00:41:22.176Z,93.95
2019-03-16T00:42:22.205Z,94.05
2019-03-16T00:43:22.161Z,94.26
2019-03-16T00:44:22.200Z,93.74
2019-03-16T00:45:22.129Z,94.10
2019-03-16T00:46:22.117Z,94.67
2019-03-16T00:47:22.107Z,94.20
2019-03-16T00:48:22.095Z,93.99
2019-03-16T00:49:22.129Z,93.68
2019-03-16T00:50:22.074Z,93.54
2019-03-16T00:51:22.063Z,93.27
2019-03-16T00:52:22.050Z,94.10
2019-03-16T00:53:22.038Z,93.89
2019-03-16T00:54:22.029Z,94.40
2019-03-16T00:55:22.061Z,94.51
2019-03-16T00:56:22.007Z,93.54
2019-03-16T00:57:22.037Z,93.38
2019-03-16T00:58:21.985Z,93.48
2019-03-16T00:59:22.014Z,93.68
2019-03-16T01:00:21.962Z,93.48
2019-03-16T01:01:21.950Z,93.89
2019-03-16T01:02:26.966Z,93.89
2019-03-16T01:03:22.995Z,93.79
2019-03-16T01:04:21.916Z,93.99
2019-03-16T01:05:21.911Z,93.07
2019-03-16T01:06:21.899Z,93.48
2019-03-16T01:07:21.887Z,93.01
2019-03-16T01:08:21.937Z,93.12
2019-03-16T01:09:21.862Z,94.10
2019-03-16T01:10:21.896Z,93.38
2019-03-16T01:11:21.840Z,92.91
2019-03-16T01:12:21.826Z,93.38
2019-03-16T01:13:21.817Z,93.12
2019-03-16T01:14:21.804Z,93.38
2019-03-16T01:15:21.837Z,93.42
2019-03-16T01:16:21.783Z,92.80
2019-03-16T01:17:21.776Z,92.29
2019-03-16T01:18:21.759Z,92.97
2019-03-16T01:19:21.750Z,93.32
2019-03-16T01:20:21.737Z,93.63
2019-03-16T01:21:21.768Z,94.04
2019-03-16T01:22:21.775Z,94.65
2019-03-16T01:23:21.705Z,94.55
2019-03-16T01:24:21.692Z,94.04
2019-03-16T01:25:21.723Z,94.85
2019-03-16T01:26:21.672Z,94.45
2019-03-16T01:27:21.659Z,94.96
2019-03-16T01:28:21.649Z,94.96
2019-03-16T01:29:21.676Z,95.06
2019-03-16T01:30:21.624Z,94.96
2019-03-16T01:31:21.614Z,94.65
2019-03-16T01:32:21.675Z,95.57
2019-03-16T01:33:21.593Z,94.76
2019-03-16T01:34:21.582Z,95.10
2019-03-16T01:35:21.611Z,94.76
2019-03-16T01:36:21.560Z,95.17
2019-03-16T01:37:21.588Z,95.10
2019-03-16T01:38:21.541Z,94.80
2019-03-16T01:39:21.527Z,95.10
2019-03-16T01:40:21.557Z,95.06
2019-03-16T01:41:21.541Z,94.96
2019-03-16T01:42:21.493Z,95.21
2019-03-16T01:43:21.488Z,95.89
2019-03-16T01:44:21.508Z,96.14
2019-03-16T01:45:21.478Z,95.93
2019-03-16T01:46:21.503Z,95.57
2019-03-16T01:47:21.438Z,95.10
2019-03-16T01:48:21.427Z,95.21
2019-03-16T01:49:21.415Z,95.10
2019-03-16T01:50:21.911Z,95.17
2019-03-16T01:51:21.402Z,95.31
2019-03-16T01:52:21.421Z,94.70
2019-03-16T01:53:21.369Z,95.21
2019-03-16T01:54:21.359Z,95.62
2019-03-16T01:55:21.349Z,95.10
2019-03-16T01:56:21.378Z,94.80
2019-03-16T01:57:21.326Z,95.01
2019-03-16T01:58:21.314Z,95.21
2019-03-16T01:59:21.302Z,95.42
2019-03-16T02:00:21.350Z,95.21
2019-03-16T02:01:21.318Z,95.31
2019-03-16T02:02:21.273Z,95.52
2019-03-16T02:03:21.257Z,95.56
2019-03-16T02:04:21.248Z,95.97
2019-03-16T02:05:21.244Z,96.39
2019-03-16T02:06:21.268Z,95.83
2019-03-16T02:07:21.282Z,95.83
2019-03-16T02:08:21.202Z,95.93
2019-03-16T02:09:21.190Z,95.83
2019-03-16T02:10:21.180Z,96.14
2019-03-16T02:11:21.175Z,96.75
2019-03-16T02:12:21.203Z,95.87
2019-03-16T02:13:21.147Z,95.97
2019-03-16T02:14:21.209Z,95.87
2019-03-16T02:15:21.168Z,96.28
2019-03-16T02:16:21.115Z,96.28
2019-03-16T02:17:21.102Z,95.67
2019-03-16T02:18:21.091Z,95.77
2019-03-16T02:19:21.122Z,95.36
2019-03-16T02:20:21.075Z,95.87
2019-03-16T02:21:21.061Z,96.08
2019-03-16T02:22:21.048Z,95.87
2019-03-16T02:23:21.075Z,96.69
2019-03-16T02:24:21.025Z,97.00
2019-03-16T02:25:21.057Z,95.87
2019-03-16T02:26:21.045Z,96.39
2019-03-16T02:27:21.034Z,96.75
2019-03-16T02:28:20.978Z,96.48
2019-03-16T02:29:20.969Z,96.18
2019-03-16T02:30:20.960Z,96.18
2019-03-16T02:31:20.949Z,96.18
2019-03-16T02:32:20.936Z,97.00
2019-03-16T02:33:20.976Z,95.77
2019-03-16T02:34:20.920Z,95.87
2019-03-16T02:35:20.905Z,96.44
2019-03-16T02:36:20.931Z,95.87
2019-03-16T02:37:20.880Z,95.77
2019-03-16T02:38:20.869Z,96.08
2019-03-16T02:39:20.892Z,95.87
2019-03-16T02:40:20.885Z,96.55
2019-03-16T02:41:20.835Z,96.18
2019-03-16T02:42:20.824Z,96.39
2019-03-16T02:43:20.812Z,96.59
2019-03-16T02:44:20.806Z,96.90
2019-03-16T02:45:20.837Z,97.16
2019-03-16T02:46:20.820Z,97.10
2019-03-16T02:47:20.768Z,96.69
2019-03-16T02:48:20.757Z,96.69
2019-03-16T02:49:20.748Z,96.90
2019-03-16T02:50:20.778Z,96.39
2019-03-16T02:51:20.730Z,96.48
2019-03-16T02:52:20.783Z,96.39
2019-03-16T02:53:20.704Z,97.00
2019-03-16T02:54:20.692Z,96.80
2019-03-16T02:55:20.679Z,97.00
2019-03-16T02:56:20.675Z,96.69
2019-03-16T02:57:20.656Z,97.10
2019-03-16T02:58:20.685Z,96.90
2019-03-16T02:59:20.635Z,96.44
2019-03-16T03:00:20.662Z,97.27
2019-03-16T03:01:20.629Z,97.06
2019-03-16T03:02:20.668Z,97.31
2019-03-16T03:03:29.330Z,97.10
2019-03-16T03:04:21.576Z,96.90
2019-03-16T03:05:20.569Z,97.52
2019-03-16T03:06:20.564Z,97.27
2019-03-16T03:07:20.597Z,97.47
2019-03-16T03:08:20.583Z,97.47
2019-03-16T03:09:20.524Z,97.27
2019-03-16T03:10:20.510Z,97.37
2019-03-16T03:11:20.501Z,97.47
2019-03-16T03:12:20.531Z,97.16
2019-03-16T03:13:20.482Z,97.37
2019-03-16T03:14:20.626Z,97.52
2019-03-16T03:15:20.471Z,97.47
2019-03-16T03:16:20.602Z,97.52
2019-03-16T03:17:20.472Z,97.92
2019-03-16T03:18:20.423Z,97.92
2019-03-16T03:19:20.411Z,97.62
2019-03-16T03:20:20.927Z,97.82
2019-03-16T03:21:20.389Z,97.72
2019-03-16T03:22:20.379Z,97.62
2019-03-16T03:23:20.368Z,97.78
2019-03-16T03:24:20.383Z,97.47
2019-03-16T03:25:20.472Z,97.31
2019-03-16T03:26:20.332Z,97.78
2019-03-16T03:27:20.324Z,97.57
2019-03-16T03:28:20.318Z,98.29
2019-03-16T03:29:20.309Z,98.25
2019-03-16T03:30:20.290Z,98.25
2019-03-16T03:31:20.317Z,98.35
2019-03-16T03:32:20.268Z,98.25
2019-03-16T03:33:20.281Z,98.35
2019-03-16T03:34:20.241Z,98.45
2019-03-16T03:35:20.235Z,98.35
2019-03-16T03:36:20.262Z,98.39
2019-03-16T03:37:20.212Z,98.39
2019-03-16T03:38:20.196Z,98.29
2019-03-16T03:39:20.189Z,98.39
2019-03-16T03:40:20.177Z,98.29
2019-03-16T03:41:20.206Z,98.39
2019-03-16T03:42:20.155Z,98.29
2019-03-16T03:43:20.145Z,98.60
2019-03-16T03:44:20.134Z,98.29
2019-03-16T03:45:20.133Z,98.19
2019-03-16T03:46:20.109Z,98.04
2019-03-16T03:47:20.140Z,98.50
2019-03-16T03:48:20.087Z,98.25
2019-03-16T03:49:20.075Z,98.25
2019-03-16T03:50:20.077Z,98.35
2019-03-16T03:51:20.054Z,98.04
2019-03-16T03:52:20.055Z,98.19
2019-03-16T03:53:20.085Z,98.39
2019-03-16T03:54:20.021Z,98.50
2019-03-16T03:55:20.017Z,98.50
2019-03-16T03:56:19.997Z,98.60
2019-03-16T03:57:19.987Z,98.29
2019-03-16T03:58:19.976Z,98.76
2019-03-16T03:59:20.004Z,98.25
2019-03-16T04:00:19.962Z,98.66
2019-03-16T04:01:19.953Z,98.25
2019-03-16T04:02:19.930Z,98.50
2019-03-16T04:03:19.921Z,98.19
2019-03-16T04:04:19.959Z,98.60
2019-03-16T04:05:19.901Z,98.50
2019-03-16T04:06:19.889Z,98.55
2019-03-16T04:07:20.598Z,98.29
2019-03-16T04:08:19.866Z,98.50
2019-03-16T04:09:19.862Z,98.14
2019-03-16T04:10:19.885Z,98.35
2019-03-16T04:11:19.833Z,98.35
2019-03-16T04:12:19.842Z,98.19
2019-03-16T04:13:19.812Z,98.39
2019-03-16T04:14:19.836Z,98.25
2019-03-16T04:15:19.792Z,97.94
2019-03-16T04:16:19.774Z,98.45
2019-03-16T04:17:19.765Z,98.76
2019-03-16T04:18:19.754Z,98.25
2019-03-16T04:19:19.741Z,98.35
2019-03-16T04:20:19.774Z,97.94
2019-03-16T04:21:19.762Z,98.25
2019-03-16T04:22:19.753Z,97.94
2019-03-16T04:23:19.700Z,98.14
2019-03-16T04:24:19.727Z,98.45
2019-03-16T04:25:19.771Z,98.66
2019-03-16T04:26:19.671Z,98.39
2019-03-16T04:27:19.654Z,98.35
2019-03-16T04:28:19.645Z,98.55
2019-03-16T04:29:19.630Z,98.14
2019-03-16T04:30:19.664Z,98.25
2019-03-16T04:31:19.644Z,98.04
2019-03-16T04:32:19.597Z,98.35
2019-03-16T04:33:19.588Z,98.14
2019-03-16T04:34:29.037Z,98.29
2019-03-16T04:35:20.561Z,98.50
2019-03-16T04:36:19.605Z,98.39
2019-03-16T04:37:19.540Z,98.29
2019-03-16T04:38:19.531Z,98.39
2019-03-16T04:39:19.518Z,98.39
2019-03-16T04:40:19.506Z,98.60
2019-03-16T04:41:19.554Z,98.55
2019-03-16T04:42:19.483Z,97.99
2019-03-16T04:43:19.475Z,98.50
2019-03-16T04:44:19.465Z,98.50
2019-03-16T04:45:19.449Z,98.29
2019-03-16T04:46:19.441Z,98.39
2019-03-16T04:47:19.466Z,98.39
2019-03-16T04:48:19.458Z,98.33
2019-03-16T04:49:19.409Z,98.29
2019-03-16T04:50:19.460Z,98.39
2019-03-16T04:51:19.383Z,98.08
2019-03-16T04:52:19.371Z,98.50
2019-03-16T04:53:19.364Z,98.70
2019-03-16T04:54:19.391Z,98.08
2019-03-16T04:55:19.343Z,98.08
2019-03-16T04:56:19.332Z,98.60
2019-03-16T04:57:19.364Z,98.39
2019-03-16T04:58:19.305Z,98.70
2019-03-16T04:59:19.294Z,98.39
2019-03-16T05:00:19.286Z,98.50
2019-03-16T05:01:19.315Z,98.39
2019-03-16T05:02:19.262Z,98.25
2019-03-16T05:03:19.253Z,98.35
2019-03-16T05:04:19.269Z,98.45
2019-03-16T05:05:19.228Z,98.45
2019-03-16T05:06:19.256Z,98.45
2019-03-16T05:07:19.204Z,98.29
2019-03-16T05:08:19.196Z,98.19
2019-03-16T05:09:19.290Z,98.39
2019-03-16T05:10:19.218Z,98.39
2019-03-16T05:11:19.167Z,98.29
2019-03-16T05:12:19.149Z,98.50
2019-03-16T05:13:19.137Z,98.19
2019-03-16T05:14:19.128Z,98.19
2019-03-16T05:15:19.115Z,98.39
2019-03-16T05:16:19.144Z,98.45
2019-03-16T05:17:19.136Z,98.08
2019-03-16T05:18:19.081Z,98.04
2019-03-16T05:19:19.072Z,98.45
2019-03-16T05:20:19.059Z,98.25
2019-03-16T05:21:19.051Z,98.29
2019-03-16T05:22:19.081Z,98.50
2019-03-16T05:23:19.042Z,98.35
2019-03-16T05:24:19.018Z,98.35
2019-03-16T05:25:19.005Z,98.04
2019-03-16T05:26:18.996Z,98.55
2019-03-16T05:27:19.034Z,98.25
2019-03-16T05:28:18.973Z,98.45
2019-03-16T05:29:18.962Z,98.04
2019-03-16T05:30:18.951Z,98.25
2019-03-16T05:31:18.938Z,98.35
2019-03-16T05:32:18.928Z,97.94
2019-03-16T05:33:18.956Z,98.14
2019-03-16T05:34:18.907Z,98.66
2019-03-16T05:35:18.895Z,98.39
2019-03-16T05:36:18.883Z,97.99
2019-03-16T05:37:18.870Z,98.39
2019-03-16T05:38:18.903Z,98.50
2019-03-16T05:39:18.851Z,98.35
2019-03-16T05:40:18.837Z,98.39
2019-03-16T05:41:18.870Z,98.29
2019-03-16T05:42:18.878Z,98.39
2019-03-16T05:43:18.805Z,98.08
2019-03-16T05:44:18.799Z,98.50
2019-03-16T05:45:18.784Z,98.35
2019-03-16T05:46:18.771Z,98.50
2019-03-16T05:47:18.809Z,98.33
2019-03-16T05:48:18.751Z,98.19
2019-03-16T05:49:18.743Z,98.39
2019-03-16T05:50:18.727Z,98.39
2019-03-16T05:51:18.718Z,98.29
2019-03-16T05:52:18.705Z,97.99
2019-03-16T05:53:18.735Z,98.19
2019-03-16T05:54:18.685Z,98.45
2019-03-16T05:55:18.712Z,98.55
2019-03-16T05:56:18.677Z,98.25
2019-03-16T05:57:18.693Z,98.35
2019-03-16T05:58:18.638Z,98.14
2019-03-16T05:59:18.631Z,98.29
2019-03-16T06:00:18.619Z,98.35
2019-03-16T06:01:18.650Z,98.14
2019-03-16T06:02:18.684Z,98.76
2019-03-16T06:03:18.599Z,98.25
2019-03-16T06:04:18.620Z,98.35
2019-03-16T06:05:18.573Z,98.25
2019-03-16T06:06:18.567Z,98.55
2019-03-16T06:07:18.553Z,98.04
2019-03-16T06:08:18.600Z,98.35
2019-03-16T06:09:18.546Z,97.94
2019-03-16T06:10:18.521Z,98.35
2019-03-16T06:11:18.511Z,98.35
2019-03-16T06:12:18.544Z,98.30
2019-03-16T06:13:18.476Z,98.30
2019-03-16T06:14:18.485Z,98.30
2019-03-16T06:15:18.520Z,98.30
2019-03-16T06:16:18.463Z,97.83
2019-03-16T06:17:18.447Z,97.58
2019-03-16T06:18:18.424Z,97.53
2019-03-16T06:19:18.444Z,97.63
2019-03-16T06:20:18.403Z,97.53
2019-03-16T06:21:18.455Z,97.63
2019-03-16T06:22:18.390Z,97.32
2019-03-16T06:23:18.457Z,97.53
2019-03-16T06:24:18.373Z,97.53
2019-03-16T06:25:18.385Z,97.48
2019-03-16T06:26:18.347Z,97.32
2019-03-16T06:27:18.324Z,97.73
2019-03-16T06:28:18.380Z,97.48
2019-03-16T06:29:18.301Z,97.48
2019-03-16T06:30:20.871Z,97.58
2019-03-16T06:31:18.286Z,97.53
2019-03-16T06:32:18.323Z,97.83
2019-03-16T06:33:18.267Z,97.79
2019-03-16T06:34:18.252Z,97.07
2019-03-16T06:35:24.644Z,97.17
2019-03-16T06:36:19.227Z,97.22
2019-03-16T06:37:18.279Z,97.63
2019-03-16T06:38:18.246Z,97.42
2019-03-16T06:39:18.209Z,97.53
2019-03-16T06:40:18.183Z,96.66
2019-03-16T06:41:18.220Z,97.07
2019-03-16T06:42:18.163Z,97.17
2019-03-16T06:43:18.152Z,97.17
2019-03-16T06:44:18.163Z,97.07
2019-03-16T06:45:18.177Z,97.07
2019-03-16T06:46:18.119Z,97.12
2019-03-16T06:47:18.138Z,96.87
2019-03-16T06:48:18.104Z,97.17
2019-03-16T06:49:18.119Z,96.87
2019-03-16T06:50:18.081Z,96.87
2019-03-16T06:51:18.055Z,96.97
2019-03-16T06:52:18.045Z,96.97
2019-03-16T06:53:19.611Z,96.66
2019-03-16T06:54:18.048Z,96.87
2019-03-16T06:55:18.059Z,96.87
2019-03-16T06:56:18.002Z,96.77
2019-03-16T06:57:17.990Z,96.77
2019-03-16T06:58:18.022Z,96.87
2019-03-16T06:59:17.982Z,97.28
2019-03-16T07:00:17.960Z,96.66
2019-03-16T07:01:17.990Z,96.77
2019-03-16T07:02:17.942Z,96.56
2019-03-16T07:03:17.979Z,96.45
2019-03-16T07:04:17.967Z,96.56
2019-03-16T07:05:21.955Z,97.07
2019-03-16T07:06:18.890Z,96.56
2019-03-16T07:07:17.880Z,97.03
2019-03-16T07:08:17.879Z,96.56
2019-03-16T07:09:17.869Z,96.45
2019-03-16T07:10:17.899Z,96.45
2019-03-16T07:11:17.842Z,96.87
2019-03-16T07:12:17.824Z,96.87
2019-03-16T07:13:17.835Z,96.45
2019-03-16T07:14:17.810Z,96.77
2019-03-16T07:15:17.787Z,96.77
2019-03-16T07:16:17.825Z,96.97
2019-03-16T07:17:17.764Z,96.72
2019-03-16T07:18:17.774Z,97.13
2019-03-16T07:19:17.750Z,96.92
2019-03-16T07:20:17.741Z,97.03
2019-03-16T07:21:17.734Z,96.72
2019-03-16T07:22:17.806Z,96.98
2019-03-16T07:23:17.814Z,96.88
2019-03-16T07:24:17.694Z,96.88
2019-03-16T07:25:17.678Z,96.78
2019-03-16T07:26:17.678Z,96.42
2019-03-16T07:27:26.146Z,96.63
2019-03-16T07:28:18.684Z,96.32
2019-03-16T07:29:17.630Z,96.12
2019-03-16T07:30:17.694Z,96.32
2019-03-16T07:31:17.613Z,96.42
2019-03-16T07:32:17.700Z,96.48
2019-03-16T07:33:17.590Z,96.53
2019-03-16T07:34:17.580Z,96.58
2019-03-16T07:35:17.592Z,96.32
2019-03-16T07:36:17.607Z,96.07
2019-03-16T07:37:17.545Z,95.36
2019-03-16T07:38:17.537Z,95.61
2019-03-16T07:39:17.521Z,95.61
2019-03-16T07:40:17.520Z,95.70
2019-03-16T07:41:17.511Z,95.40
2019-03-16T07:42:17.530Z,96.01
2019-03-16T07:43:17.475Z,95.91
2019-03-16T07:44:17.504Z,95.81
2019-03-16T07:45:17.458Z,95.81
2019-03-16T07:46:17.443Z,96.42
2019-03-16T07:47:17.470Z,96.22
2019-03-16T07:48:17.417Z,96.32
2019-03-16T07:49:17.404Z,96.22
2019-03-16T07:50:17.402Z,96.58
2019-03-16T07:51:17.388Z,96.42
2019-03-16T07:52:17.377Z,96.22
2019-03-16T07:53:17.436Z,96.22
2019-03-16T07:54:17.353Z,96.32
2019-03-16T07:55:17.339Z,95.97
2019-03-16T07:56:17.332Z,96.07
2019-03-16T07:57:17.415Z,95.66
2019-03-16T07:58:17.351Z,95.76
2019-03-16T07:59:17.346Z,96.38
2019-03-16T08:00:17.285Z,96.07
2019-03-16T08:01:17.274Z,96.07
2019-03-16T08:02:17.269Z,96.07
2019-03-16T08:03:17.255Z,95.66
2019-03-16T08:04:17.961Z,95.82
2019-03-16T08:05:19.247Z,95.51
2019-03-16T08:06:17.237Z,95.92
2019-03-16T08:07:17.253Z,95.82
2019-03-16T08:08:17.202Z,95.72
2019-03-16T08:09:17.261Z,95.51
2019-03-16T08:10:17.178Z,95.92
2019-03-16T08:11:17.204Z,95.88
2019-03-16T08:12:17.158Z,95.98
2019-03-16T08:13:17.141Z,96.39
2019-03-16T08:14:17.133Z,96.19
2019-03-16T08:15:17.124Z,96.08
2019-03-16T08:16:17.108Z,96.08
2019-03-16T08:17:17.190Z,95.47
2019-03-16T08:18:17.147Z,95.47
2019-03-16T08:19:17.079Z,95.17
2019-03-16T08:20:17.078Z,95.57
2019-03-16T08:21:17.049Z,95.32
2019-03-16T08:22:17.033Z,95.12
2019-03-16T08:23:17.040Z,95.32
2019-03-16T08:24:17.057Z,95.32
2019-03-16T08:25:17.121Z,94.30
2019-03-16T08:26:17.006Z,94.10
2019-03-16T08:27:16.983Z,92.97
2019-03-16T08:28:16.974Z,93.07
2019-03-16T08:29:16.978Z,90.62
2019-03-16T08:30:16.999Z,91.60
2019-03-16T08:31:17.019Z,91.29
2019-03-16T08:32:16.952Z,91.39
2019-03-16T08:33:16.919Z,92.11
2019-03-16T08:34:16.961Z,91.91
2019-03-16T08:35:16.909Z,92.32
2019-03-16T08:36:16.887Z,92.11
2019-03-16T08:37:16.880Z,90.99
2019-03-16T08:38:16.858Z,89.76
2019-03-16T08:39:16.932Z,89.82
2019-03-16T08:40:16.907Z,90.19
2019-03-16T08:41:16.827Z,89.37
2019-03-16T08:42:16.827Z,89.17
2019-03-16T08:43:16.799Z,90.04
2019-03-16T08:44:16.878Z,89.84
2019-03-16T08:45:16.856Z,88.61
2019-03-16T08:46:16.764Z,87.90
2019-03-16T08:47:16.762Z,88.17
2019-03-16T08:48:22.852Z,87.55
2019-03-16T08:49:17.802Z,87.65
2019-03-16T08:50:16.730Z,87.65
2019-03-16T08:51:16.709Z,86.33
2019-03-16T08:52:16.744Z,86.33
2019-03-16T08:53:16.762Z,85.21
2019-03-16T08:54:16.684Z,84.80
2019-03-16T08:55:16.675Z,83.98
2019-03-16T08:56:16.730Z,85.37
2019-03-16T08:57:16.646Z,85.16
2019-03-16T08:58:16.636Z,85.10
2019-03-16T08:59:16.639Z,83.84
2019-03-16T09:00:16.690Z,84.86
2019-03-16T09:01:16.655Z,83.84
2019-03-16T09:02:16.598Z,83.16
2019-03-16T09:03:16.668Z,81.59
2019-03-16T09:04:16.587Z,82.41
2019-03-16T09:05:16.632Z,81.90
2019-03-16T09:06:16.619Z,83.90
2019-03-16T09:07:16.546Z,83.23
2019-03-16T09:08:16.531Z,82.82
2019-03-16T09:09:16.591Z,82.10
2019-03-16T09:10:16.521Z,83.49
2019-03-16T09:11:16.511Z,84.25
2019-03-16T09:12:16.562Z,81.25
2019-03-16T09:13:16.879Z,80.88
2019-03-16T09:14:16.463Z,81.56
2019-03-16T09:15:16.478Z,81.09
2019-03-16T09:16:16.515Z,81.96
2019-03-16T09:17:16.436Z,80.88
2019-03-16T09:18:16.430Z,80.37
2019-03-16T09:19:16.398Z,81.56
2019-03-16T09:20:16.468Z,81.90
2019-03-16T09:21:16.481Z,80.47
2019-03-16T09:22:16.381Z,80.33
2019-03-16T09:23:16.457Z,79.86
2019-03-16T09:24:16.360Z,79.82
2019-03-16T09:25:16.340Z,78.23
2019-03-16T09:26:16.332Z,78.53
2019-03-16T09:27:16.321Z,78.64
2019-03-16T09:28:19.016Z,78.60
2019-03-16T09:29:16.370Z,76.87
2019-03-16T09:30:16.280Z,77.44
2019-03-16T09:31:16.265Z,77.75
2019-03-16T09:32:16.259Z,76.93
2019-03-16T09:33:16.353Z,77.55
2019-03-16T09:34:16.249Z,77.75
2019-03-16T09:35:16.398Z,78.77
2019-03-16T09:36:16.224Z,77.14
2019-03-16T09:37:16.213Z,76.97
2019-03-16T09:38:16.206Z,76.97
2019-03-16T09:39:16.209Z,76.05
2019-03-16T09:40:16.244Z,74.83
2019-03-16T09:41:16.228Z,77.34
2019-03-16T09:42:16.159Z,75.60
2019-03-16T09:43:16.170Z,75.81
2019-03-16T09:44:16.139Z,76.93
2019-03-16T09:45:16.448Z,75.30
2019-03-16T09:46:16.152Z,76.39
2019-03-16T09:47:16.093Z,76.39
2019-03-16T09:48:16.165Z,74.86
2019-03-16T09:49:16.081Z,75.98
2019-03-16T09:50:16.068Z,76.76
2019-03-16T09:51:16.857Z,75.33
2019-03-16T09:52:16.037Z,76.35
2019-03-16T09:53:16.022Z,77.17
2019-03-16T09:54:16.091Z,76.25
2019-03-16T09:55:16.019Z,76.04
2019-03-16T09:56:16.011Z,76.21
2019-03-16T09:57:15.996Z,75.20
2019-03-16T09:58:15.993Z,76.21
2019-03-16T09:59:16.065Z,73.36
2019-03-16T10:00:16.032Z,74.18
2019-03-16T10:01:15.934Z,75.20
2019-03-16T10:02:15.936Z,73.30
2019-03-16T10:03:16.526Z,74.89
2019-03-16T10:04:15.911Z,71.94
2019-03-16T10:05:15.900Z,73.57
2019-03-16T10:06:15.971Z,73.80
2019-03-16T10:07:15.875Z,73.57
2019-03-16T10:08:18.950Z,74.89
2019-03-16T10:09:15.875Z,72.96
2019-03-16T10:10:15.844Z,71.53
2019-03-16T10:11:15.856Z,72.75
2019-03-16T10:12:15.954Z,73.16
2019-03-16T10:13:15.804Z,73.06
2019-03-16T10:14:15.797Z,71.43
2019-03-16T10:15:15.800Z,72.31
2019-03-16T10:16:15.788Z,71.91
2019-03-16T10:17:15.860Z,71.50
2019-03-16T10:18:15.767Z,72.04
2019-03-16T10:19:15.756Z,73.06
2019-03-16T10:20:15.738Z,73.16
2019-03-16T10:21:18.707Z,73.06
2019-03-16T10:22:15.701Z,71.53
2019-03-16T10:23:15.712Z,72.75
2019-03-16T10:24:15.696Z,73.16
2019-03-16T10:25:15.675Z,74.79
2019-03-16T10:26:15.738Z,73.87
2019-03-16T10:27:15.658Z,71.09
2019-03-16T10:28:15.647Z,71.91
2019-03-16T10:29:15.635Z,69.90
2019-03-16T10:30:15.631Z,71.12
2019-03-16T10:31:15.706Z,71.53
2019-03-16T10:32:15.602Z,72.25
2019-03-16T10:33:15.613Z,70.38
2019-03-16T10:34:15.651Z,71.19
2019-03-16T10:35:15.584Z,70.89
2019-03-16T10:36:15.550Z,71.70
2019-03-16T10:37:15.636Z,71.16
2019-03-16T10:38:15.557Z,70.14
2019-03-16T10:39:15.541Z,70.35
2019-03-16T10:40:15.540Z,70.11
2019-03-16T10:41:15.502Z,69.09
2019-03-16T10:42:15.491Z,68.62
2019-03-16T10:43:15.561Z,67.60
2019-03-16T10:44:17.912Z,67.19
2019-03-16T10:45:15.452Z,68.62
2019-03-16T10:46:15.492Z,68.72
2019-03-16T10:47:15.510Z,68.01
2019-03-16T10:48:15.420Z,67.71
2019-03-16T10:49:15.411Z,67.60
2019-03-16T10:50:15.411Z,68.01
2019-03-16T10:51:15.422Z,68.08
2019-03-16T10:52:15.441Z,67.97
2019-03-16T10:53:15.382Z,66.86
2019-03-16T10:54:15.360Z,67.57
2019-03-16T10:55:15.355Z,65.74
2019-03-16T10:56:15.422Z,67.47
2019-03-16T10:57:15.337Z,66.49
2019-03-16T10:58:15.338Z,67.47
2019-03-16T10:59:15.303Z,67.94
2019-03-16T11:00:15.361Z,66.49
2019-03-16T11:01:15.287Z,65.20
2019-03-16T11:02:15.346Z,66.22
2019-03-16T11:03:15.490Z,65.41
2019-03-16T11:04:15.240Z,66.35
2019-03-16T11:05:15.486Z,66.05
2019-03-16T11:06:15.229Z,66.66
2019-03-16T11:07:15.286Z,64.35
2019-03-16T11:08:15.214Z,65.77
2019-03-16T11:09:15.188Z,65.57
2019-03-16T11:10:15.178Z,65.67
2019-03-16T11:11:15.281Z,65.97
2019-03-16T11:12:15.161Z,65.67
2019-03-16T11:13:15.452Z,65.77
2019-03-16T11:14:15.139Z,66.38
2019-03-16T11:15:15.149Z,65.88
2019-03-16T11:16:15.124Z,65.67
2019-03-16T11:17:15.115Z,65.06
2019-03-16T11:18:15.101Z,66.25
2019-03-16T11:19:15.229Z,66.28
2019-03-16T11:20:15.075Z,66.08
2019-03-16T11:21:15.402Z,66.89
2019-03-16T11:22:15.058Z,66.99
2019-03-16T11:23:15.031Z,66.69
2019-03-16T11:24:15.046Z,66.89
2019-03-16T11:25:15.380Z,66.28
2019-03-16T11:26:15.031Z,66.52
2019-03-16T11:27:17.196Z,66.72
2019-03-16T11:28:17.195Z,66.14
2019-03-16T11:29:15.005Z,66.92
2019-03-16T11:30:14.968Z,67.74
2019-03-16T11:31:15.015Z,66.89
2019-03-16T11:32:14.935Z,65.88
2019-03-16T11:33:14.926Z,66.38
2019-03-16T11:34:14.961Z,66.61
2019-03-16T11:35:14.991Z,65.26
2019-03-16T11:36:14.897Z,64.62
2019-03-16T11:37:14.881Z,63.74
2019-03-16T11:38:14.864Z,64.76
2019-03-16T11:39:14.926Z,64.86
2019-03-16T11:40:14.854Z,64.93
2019-03-16T11:41:14.912Z,64.15
2019-03-16T11:42:16.402Z,64.76
2019-03-16T11:43:14.821Z,64.55
2019-03-16T11:44:14.871Z,64.76
2019-03-16T11:45:17.016Z,64.52
2019-03-16T11:46:14.786Z,64.45
2019-03-16T11:47:14.766Z,64.86
2019-03-16T11:48:14.814Z,65.03
2019-03-16T11:49:17.247Z,64.93
2019-03-16T11:50:14.735Z,66.72
2019-03-16T11:51:14.800Z,65.00
2019-03-16T11:52:14.737Z,64.70
2019-03-16T11:53:14.720Z,64.29
2019-03-16T11:54:14.825Z,65.00
2019-03-16T11:55:14.700Z,64.79
2019-03-16T11:56:18.159Z,65.20
2019-03-16T11:57:14.740Z,64.73
2019-03-16T11:58:14.675Z,65.23
2019-03-16T11:59:21.495Z,64.73
2019-03-16T12:00:14.638Z,63.94
2019-03-16T12:01:14.617Z,64.52
2019-03-16T12:02:14.673Z,64.62
2019-03-16T12:03:14.597Z,65.13
2019-03-16T12:04:14.623Z,64.73
2019-03-16T12:05:14.594Z,64.73
2019-03-16T12:06:14.950Z,64.42
2019-03-16T12:07:14.547Z,64.62
2019-03-16T12:08:14.549Z,65.23
2019-03-16T12:09:14.565Z,64.62
2019-03-16T12:10:14.527Z,64.83
2019-03-16T12:11:14.500Z,65.03
2019-03-16T12:12:14.570Z,65.97
2019-03-16T12:13:17.764Z,64.86
2019-03-16T12:14:14.481Z,65.16
2019-03-16T12:15:14.470Z,66.99
2019-03-16T12:16:14.448Z,66.28
2019-03-16T12:17:14.506Z,66.89
2019-03-16T12:18:14.436Z,66.66
2019-03-16T12:19:14.425Z,67.10
2019-03-16T12:20:17.695Z,67.33
2019-03-16T12:21:14.394Z,66.00
2019-03-16T12:22:14.446Z,67.22
2019-03-16T12:23:14.451Z,67.13
2019-03-16T12:24:14.377Z,66.61
2019-03-16T12:25:14.353Z,66.82
2019-03-16T12:26:14.360Z,65.88
2019-03-16T12:27:14.354Z,66.58
2019-03-16T12:28:14.414Z,64.52
2019-03-16T12:29:14.306Z,64.83
2019-03-16T12:30:14.294Z,64.59
2019-03-16T12:31:14.294Z,63.07
2019-03-16T12:32:14.367Z,62.05
2019-03-16T12:33:14.374Z,63.00
2019-03-16T12:34:14.266Z,62.62
2019-03-16T12:35:14.267Z,64.04
2019-03-16T12:36:14.245Z,64.65
2019-03-16T12:37:14.266Z,64.55
2019-03-16T12:38:14.210Z,63.33
2019-03-16T12:39:14.281Z,62.62
2019-03-16T12:40:14.258Z,63.30
2019-03-16T12:41:14.217Z,63.20
2019-03-16T12:42:14.182Z,62.29
2019-03-16T12:43:14.150Z,63.33
2019-03-16T12:44:14.135Z,64.04
2019-03-16T12:45:14.144Z,62.62
2019-03-16T12:46:14.212Z,62.79
2019-03-16T12:47:14.218Z,62.79
2019-03-16T12:48:15.402Z,62.76
2019-03-16T12:49:14.097Z,62.43
2019-03-16T12:50:14.186Z,61.32
2019-03-16T12:51:14.435Z,60.74
2019-03-16T12:52:14.065Z,60.76